sensor_id;sensor_type;location;lat;lon;timestamp;pressure;altitude;pressure_sealevel;temperature;humidity
19112;BME280;9688;51.906;8.376;2023-02-02T00:00:48;100934.56;;;6.43;97.06
19112;BME280;9688;51.906;8.376;2023-02-02T00:03:34;100926.75;;;6.40;97.39
19112;BME280;9688;51.906;8.376;2023-02-02T00:06:22;100935.53;;;6.38;97.17
19112;BME280;9688;51.906;8.376;2023-02-02T00:09:11;100942.56;;;6.36;97.17
19112;BME280;9688;51.906;8.376;2023-02-02T00:11:59;100936.50;;;6.31;97.24
19112;BME280;9688;51.906;8.376;2023-02-02T00:14:45;100936.56;;;6.26;96.89
19112;BME280;9688;51.906;8.376;2023-02-02T00:17:31;100936.63;;;6.23;97.49
19112;BME280;9688;51.906;8.376;2023-02-02T00:20:18;100936.72;;;6.18;97.60
19112;BME280;9688;51.906;8.376;2023-02-02T00:23:05;100935.00;;;6.16;96.82
19112;BME280;9688;51.906;8.376;2023-02-02T00:25:51;100933.28;;;6.12;97.53
19112;BME280;9688;51.906;8.376;2023-02-02T00:28:36;100936.88;;;6.08;97.59
19112;BME280;9688;51.906;8.376;2023-02-02T00:31:22;100929.06;;;6.03;97.55
19112;BME280;9688;51.906;8.376;2023-02-02T00:34:09;100931.72;;;5.98;97.70
19112;BME280;9688;51.906;8.376;2023-02-02T00:36:56;100937.03;;;5.92;97.37
19112;BME280;9688;51.906;8.376;2023-02-02T00:39:42;100938.00;;;5.88;97.60
19112;BME280;9688;51.906;8.376;2023-02-02T00:42:31;100935.41;;;5.84;98.02
19112;BME280;9688;51.906;8.376;2023-02-02T00:45:16;100947.69;;;5.81;97.73
19112;BME280;9688;51.906;8.376;2023-02-02T00:48:02;100940.72;;;5.79;97.71
19112;BME280;9688;51.906;8.376;2023-02-02T00:50:48;100936.41;;;5.75;97.94
19112;BME280;9688;51.906;8.376;2023-02-02T00:53:35;100947.81;;;5.71;97.62
19112;BME280;9688;51.906;8.376;2023-02-02T00:56:21;100946.13;;;5.68;97.79
19112;BME280;9688;51.906;8.376;2023-02-02T00:59:07;100958.34;;;5.69;97.73
19112;BME280;9688;51.906;8.376;2023-02-02T01:01:52;100954.84;;;5.70;97.82
19112;BME280;9688;51.906;8.376;2023-02-02T01:04:38;100953.06;;;5.71;97.87
19112;BME280;9688;51.906;8.376;2023-02-02T01:07:24;100958.34;;;5.69;97.57
19112;BME280;9688;51.906;8.376;2023-02-02T01:10:14;100960.97;;;5.68;98.49
19112;BME280;9688;51.906;8.376;2023-02-02T01:13:00;100958.41;;;5.66;98.02
19112;BME280;9688;51.906;8.376;2023-02-02T01:15:48;100960.16;;;5.64;97.86
19112;BME280;9688;51.906;8.376;2023-02-02T01:18:34;100966.31;;;5.62;98.27
19112;BME280;9688;51.906;8.376;2023-02-02T01:21:20;100968.06;;;5.59;98.72
19112;BME280;9688;51.906;8.376;2023-02-02T01:24:06;100962.88;;;5.58;98.49
19112;BME280;9688;51.906;8.376;2023-02-02T01:26:53;100958.53;;;5.54;98.30
19112;BME280;9688;51.906;8.376;2023-02-02T01:29:39;100968.19;;;5.52;98.03
19112;BME280;9688;51.906;8.376;2023-02-02T01:32:24;100968.19;;;5.50;98.97
19112;BME280;9688;51.906;8.376;2023-02-02T01:35:10;100967.34;;;5.50;98.17
19112;BME280;9688;51.906;8.376;2023-02-02T01:37:56;100962.13;;;5.45;98.18
19112;BME280;9688;51.906;8.376;2023-02-02T01:40:45;100972.66;;;5.42;98.17
19112;BME280;9688;51.906;8.376;2023-02-02T01:43:54;100970.09;;;5.39;98.08
19112;BME280;9688;51.906;8.376;2023-02-02T01:46:40;100980.53;;;5.42;98.53
19112;BME280;9688;51.906;8.376;2023-02-02T01:49:25;100980.56;;;5.41;98.83
19112;BME280;9688;51.906;8.376;2023-02-02T01:52:12;100988.44;;;5.39;98.53
19112;BME280;9688;51.906;8.376;2023-02-02T01:55:03;100982.31;;;5.37;98.21
19112;BME280;9688;51.906;8.376;2023-02-02T01:57:56;100983.22;;;5.36;98.17
19112;BME280;9688;51.906;8.376;2023-02-02T02:00:43;100982.38;;;5.35;98.57
19112;BME280;9688;51.906;8.376;2023-02-02T02:03:31;100982.31;;;5.37;98.83
19112;BME280;9688;51.906;8.376;2023-02-02T02:06:18;100989.38;;;5.35;99.01
19112;BME280;9688;51.906;8.376;2023-02-02T02:09:06;100998.09;;;5.35;99.06
19112;BME280;9688;51.906;8.376;2023-02-02T02:11:52;100998.09;;;5.34;98.13
19112;BME280;9688;51.906;8.376;2023-02-02T02:14:38;100998.97;;;5.34;98.92
19112;BME280;9688;51.906;8.376;2023-02-02T02:18:03;100997.22;;;5.33;98.30
19112;BME280;9688;51.906;8.376;2023-02-02T02:21:10;100997.22;;;5.33;99.00
19112;BME280;9688;51.906;8.376;2023-02-02T02:24:45;100991.09;;;5.36;98.17
19112;BME280;9688;51.906;8.376;2023-02-02T02:28:21;100991.06;;;5.39;98.85
19112;BME280;9688;51.906;8.376;2023-02-02T02:31:53;100993.59;;;5.45;98.44
19112;BME280;9688;51.906;8.376;2023-02-02T02:34:51;101004.88;;;5.53;98.33
19112;BME280;9688;51.906;8.376;2023-02-02T02:37:45;101002.16;;;5.61;98.54
19112;BME280;9688;51.906;8.376;2023-02-02T02:40:35;100998.59;;;5.65;98.22
19112;BME280;9688;51.906;8.376;2023-02-02T02:43:26;101005.53;;;5.72;98.07
19112;BME280;9688;51.906;8.376;2023-02-02T02:46:12;101002.91;;;5.74;97.58
19112;BME280;9688;51.906;8.376;2023-02-02T02:49:00;101010.72;;;5.77;98.00
19112;BME280;9688;51.906;8.376;2023-02-02T02:51:47;101011.53;;;5.80;97.45
19112;BME280;9688;51.906;8.376;2023-02-02T02:54:36;101011.50;;;5.84;97.72
19112;BME280;9688;51.906;8.376;2023-02-02T02:57:37;101018.47;;;5.86;97.56
19112;BME280;9688;51.906;8.376;2023-02-02T03:00:34;101013.19;;;5.89;97.61
19112;BME280;9688;51.906;8.376;2023-02-02T03:03:41;101013.16;;;5.91;97.77
19112;BME280;9688;51.906;8.376;2023-02-02T03:06:36;101020.13;;;5.96;97.40
19112;BME280;9688;51.906;8.376;2023-02-02T03:09:28;101021.84;;;5.99;98.05
19112;BME280;9688;51.906;8.376;2023-02-02T03:12:16;101013.03;;;6.05;98.32
19112;BME280;9688;51.906;8.376;2023-02-02T03:15:04;101020.00;;;6.06;98.15
19112;BME280;9688;51.906;8.376;2023-02-02T03:17:50;101009.50;;;6.06;97.47
19112;BME280;9688;51.906;8.376;2023-02-02T03:20:37;101004.25;;;6.06;97.75
19112;BME280;9688;51.906;8.376;2023-02-02T03:23:23;101013.84;;;6.07;97.44
19112;BME280;9688;51.906;8.376;2023-02-02T03:26:09;101014.69;;;6.09;97.78
19112;BME280;9688;51.906;8.376;2023-02-02T03:28:55;101012.97;;;6.08;97.76
19112;BME280;9688;51.906;8.376;2023-02-02T03:31:41;101017.31;;;6.10;98.17
19112;BME280;9688;51.906;8.376;2023-02-02T03:34:26;101014.66;;;6.12;98.18
19112;BME280;9688;51.906;8.376;2023-02-02T03:37:12;101018.16;;;6.12;98.17
19112;BME280;9688;51.906;8.376;2023-02-02T03:39:58;101012.91;;;6.12;98.20
19112;BME280;9688;51.906;8.376;2023-02-02T03:42:44;101013.75;;;6.16;98.41
19112;BME280;9688;51.906;8.376;2023-02-02T03:45:30;101018.94;;;6.19;98.01
19112;BME280;9688;51.906;8.376;2023-02-02T03:48:18;101028.59;;;6.18;97.67
19112;BME280;9688;51.906;8.376;2023-02-02T03:51:06;101019.81;;;6.21;98.46
19112;BME280;9688;51.906;8.376;2023-02-02T03:53:52;101023.19;;;6.26;98.68
19112;BME280;9688;51.906;8.376;2023-02-02T03:56:38;101032.75;;;6.33;98.18
19112;BME280;9688;51.906;8.376;2023-02-02T03:59:24;101023.94;;;6.36;98.32
19112;BME280;9688;51.906;8.376;2023-02-02T04:02:10;101025.63;;;6.40;98.10
19112;BME280;9688;51.906;8.376;2023-02-02T04:04:55;101036.94;;;6.45;98.05
19112;BME280;9688;51.906;8.376;2023-02-02T04:07:41;101038.59;;;6.51;98.34
19112;BME280;9688;51.906;8.376;2023-02-02T04:10:27;101039.41;;;6.56;98.18
19112;BME280;9688;51.906;8.376;2023-02-02T04:13:16;101034.09;;;6.60;98.11
19112;BME280;9688;51.906;8.376;2023-02-02T04:16:02;101034.91;;;6.64;98.20
19112;BME280;9688;51.906;8.376;2023-02-02T04:18:48;101037.47;;;6.67;98.30
19112;BME280;9688;51.906;8.376;2023-02-02T04:21:34;101038.28;;;6.70;98.10
19112;BME280;9688;51.906;8.376;2023-02-02T04:24:20;101037.38;;;6.75;98.07
19112;BME280;9688;51.906;8.376;2023-02-02T04:27:05;101045.19;;;6.79;98.21
19112;BME280;9688;51.906;8.376;2023-02-02T04:29:52;101042.53;;;6.81;98.35
19112;BME280;9688;51.906;8.376;2023-02-02T04:32:41;101036.34;;;6.83;98.20
19112;BME280;9688;51.906;8.376;2023-02-02T04:35:26;101045.03;;;6.88;98.29
19112;BME280;9688;51.906;8.376;2023-02-02T04:38:12;101044.91;;;6.95;98.49
19112;BME280;9688;51.906;8.376;2023-02-02T04:41:05;101050.16;;;6.96;98.33
19112;BME280;9688;51.906;8.376;2023-02-02T04:43:50;101047.47;;;6.99;98.43
19112;BME280;9688;51.906;8.376;2023-02-02T04:46:37;101050.91;;;7.03;98.72
19112;BME280;9688;51.906;8.376;2023-02-02T04:49:23;101052.63;;;7.07;98.66
19112;BME280;9688;51.906;8.376;2023-02-02T04:52:09;101056.16;;;7.04;98.56
19112;BME280;9688;51.906;8.376;2023-02-02T04:54:55;101055.31;;;7.01;98.89
19112;BME280;9688;51.906;8.376;2023-02-02T04:57:41;101063.25;;;6.99;99.26
19112;BME280;9688;51.906;8.376;2023-02-02T05:00:27;101050.22;;;6.93;99.09
19112;BME280;9688;51.906;8.376;2023-02-02T05:03:14;101053.72;;;6.92;99.42
19112;BME280;9688;51.906;8.376;2023-02-02T05:06:01;101051.94;;;6.92;99.90
19112;BME280;9688;51.906;8.376;2023-02-02T05:08:47;101043.16;;;6.95;99.66
19112;BME280;9688;51.906;8.376;2023-02-02T05:11:32;101043.16;;;6.95;99.77
19112;BME280;9688;51.906;8.376;2023-02-02T05:14:18;101045.78;;;6.97;99.73
19112;BME280;9688;51.906;8.376;2023-02-02T05:17:04;101055.31;;;7.01;99.73
19112;BME280;9688;51.906;8.376;2023-02-02T05:19:50;101050.00;;;7.05;99.40
19112;BME280;9688;51.906;8.376;2023-02-02T05:22:36;101049.09;;;7.08;99.54
19112;BME280;9688;51.906;8.376;2023-02-02T05:25:21;101052.56;;;7.10;99.61
19112;BME280;9688;51.906;8.376;2023-02-02T05:28:07;101051.66;;;7.09;99.77
19112;BME280;9688;51.906;8.376;2023-02-02T05:30:52;101051.72;;;7.08;99.84
19112;BME280;9688;51.906;8.376;2023-02-02T05:33:38;101056.06;;;7.09;99.84
19112;BME280;9688;51.906;8.376;2023-02-02T05:36:25;101059.59;;;7.08;99.62
19112;BME280;9688;51.906;8.376;2023-02-02T05:39:11;101049.94;;;7.10;99.85
19112;BME280;9688;51.906;8.376;2023-02-02T05:41:56;101055.13;;;7.13;99.86
19112;BME280;9688;51.906;8.376;2023-02-02T05:44:41;101054.16;;;7.17;99.80
19112;BME280;9688;51.906;8.376;2023-02-02T05:47:27;101051.53;;;7.17;99.74
19112;BME280;9688;51.906;8.376;2023-02-02T05:50:13;101048.03;;;7.18;99.98
19112;BME280;9688;51.906;8.376;2023-02-02T05:53:01;101053.25;;;7.21;100.00
19112;BME280;9688;51.906;8.376;2023-02-02T05:55:47;101073.34;;;7.24;99.73
19112;BME280;9688;51.906;8.376;2023-02-02T05:58:32;101069.94;;;7.19;99.77
19112;BME280;9688;51.906;8.376;2023-02-02T06:01:20;101070.75;;;7.22;100.00
19112;BME280;9688;51.906;8.376;2023-02-02T06:04:05;101078.56;;;7.27;100.00
19112;BME280;9688;51.906;8.376;2023-02-02T06:06:50;101082.91;;;7.29;100.00
19112;BME280;9688;51.906;8.376;2023-02-02T06:09:38;101085.53;;;7.29;99.99
19112;BME280;9688;51.906;8.376;2023-02-02T06:12:23;101090.84;;;7.25;100.00
19112;BME280;9688;51.906;8.376;2023-02-02T06:15:10;101094.38;;;7.24;100.00
19112;BME280;9688;51.906;8.376;2023-02-02T06:17:58;101096.13;;;7.25;100.00
19112;BME280;9688;51.906;8.376;2023-02-02T06:20:45;101091.72;;;7.25;100.00
19112;BME280;9688;51.906;8.376;2023-02-02T06:23:31;101093.47;;;7.25;100.00
19112;BME280;9688;51.906;8.376;2023-02-02T06:26:20;101088.22;;;7.26;100.00
19112;BME280;9688;51.906;8.376;2023-02-02T06:29:05;101094.28;;;7.28;100.00
19112;BME280;9688;51.906;8.376;2023-02-02T06:31:51;101093.41;;;7.29;100.00
19112;BME280;9688;51.906;8.376;2023-02-02T06:34:37;101098.72;;;7.26;100.00
19112;BME280;9688;51.906;8.376;2023-02-02T06:37:22;101100.56;;;7.21;100.00
19112;BME280;9688;51.906;8.376;2023-02-02T06:40:09;101102.34;;;7.19;100.00
19112;BME280;9688;51.906;8.376;2023-02-02T06:43:01;101112.88;;;7.18;100.00
19112;BME280;9688;51.906;8.376;2023-02-02T06:45:47;101124.25;;;7.20;100.00
19112;BME280;9688;51.906;8.376;2023-02-02T06:48:34;101118.97;;;7.20;100.00
19112;BME280;9688;51.906;8.376;2023-02-02T06:51:22;101122.47;;;7.20;100.00
19112;BME280;9688;51.906;8.376;2023-02-02T06:54:09;101119.94;;;7.14;100.00
19112;BME280;9688;51.906;8.376;2023-02-02T06:56:55;101126.19;;;7.08;100.00
19112;BME280;9688;51.906;8.376;2023-02-02T06:59:42;101125.44;;;7.00;100.00
19112;BME280;9688;51.906;8.376;2023-02-02T07:02:30;101128.16;;;6.96;100.00
19112;BME280;9688;51.906;8.376;2023-02-02T07:09:49;101134.97;;;6.45;100.00
19112;BME280;9688;51.906;8.376;2023-02-02T09:58:23;101307.41;;;6.50;100.00
19112;BME280;9688;51.906;8.376;2023-02-02T10:01:12;101307.34;;;6.54;100.00
19112;BME280;9688;51.906;8.376;2023-02-02T10:04:02;101319.63;;;6.51;100.00
19112;BME280;9688;51.906;8.376;2023-02-02T10:06:53;101319.69;;;6.46;100.00
19112;BME280;9688;51.906;8.376;2023-02-02T10:09:43;101331.06;;;6.45;100.00
19112;BME280;9688;51.906;8.376;2023-02-02T10:12:34;101327.56;;;6.44;100.00
19112;BME280;9688;51.906;8.376;2023-02-02T10:15:33;101331.97;;;6.42;100.00
19112;BME280;9688;51.906;8.376;2023-02-02T10:18:29;101334.56;;;6.47;100.00
19112;BME280;9688;51.906;8.376;2023-02-02T10:21:28;101334.53;;;6.52;100.00
19112;BME280;9688;51.906;8.376;2023-02-02T10:24:20;101331.81;;;6.56;100.00
19112;BME280;9688;51.906;8.376;2023-02-02T10:27:13;101337.03;;;6.59;100.00
19112;BME280;9688;51.906;8.376;2023-02-02T10:30:06;101330.00;;;6.64;100.00
19112;BME280;9688;51.906;8.376;2023-02-02T10:33:04;101330.88;;;6.62;100.00
19112;BME280;9688;51.906;8.376;2023-02-02T11:00:47;101358.81;;;6.74;100.00
19112;BME280;9688;51.906;8.376;2023-02-02T11:07:53;101356.91;;;6.86;100.00
19112;BME280;9688;51.906;8.376;2023-02-02T11:10:42;101357.72;;;6.90;100.00
19112;BME280;9688;51.906;8.376;2023-02-02T11:13:50;101359.41;;;6.97;100.00
19112;BME280;9688;51.906;8.376;2023-02-02T11:16:42;101363.81;;;6.97;100.00
19112;BME280;9688;51.906;8.376;2023-02-02T11:19:59;101362.03;;;6.97;100.00
19112;BME280;9688;51.906;8.376;2023-02-02T11:23:15;101358.50;;;7.00;100.00
19112;BME280;9688;51.906;8.376;2023-02-02T11:26:07;101362.81;;;7.04;100.00
19112;BME280;9688;51.906;8.376;2023-02-02T11:29:14;101363.69;;;7.07;100.00
19112;BME280;9688;51.906;8.376;2023-02-02T11:36:17;101369.84;;;7.05;100.00
19112;BME280;9688;51.906;8.376;2023-02-02T11:39:35;101371.66;;;7.01;100.00
19112;BME280;9688;51.906;8.376;2023-02-02T11:42:46;101377.69;;;7.06;100.00
19112;BME280;9688;51.906;8.376;2023-02-02T11:45:53;101382.03;;;7.10;100.00
19112;BME280;9688;51.906;8.376;2023-02-02T11:49:00;101383.72;;;7.14;100.00
19112;BME280;9688;51.906;8.376;2023-02-02T11:56:26;101381.19;;;7.10;100.00
19112;BME280;9688;51.906;8.376;2023-02-02T11:59:30;101379.47;;;7.06;100.00
19112;BME280;9688;51.906;8.376;2023-02-02T12:02:31;101382.09;;;7.07;100.00
19112;BME280;9688;51.906;8.376;2023-02-02T12:05:34;101382.94;;;7.06;100.00
19112;BME280;9688;51.906;8.376;2023-02-02T12:08:34;101386.47;;;7.05;100.00
19112;BME280;9688;51.906;8.376;2023-02-02T12:18:42;101392.69;;;7.00;100.00
19112;BME280;9688;51.906;8.376;2023-02-02T12:21:52;101396.13;;;7.03;100.00
19112;BME280;9688;51.906;8.376;2023-02-02T12:26:01;101397.00;;;7.05;100.00
19112;BME280;9688;51.906;8.376;2023-02-02T12:29:40;101396.16;;;7.00;100.00
19112;BME280;9688;51.906;8.376;2023-02-02T12:33:14;101390.06;;;6.98;100.00
19112;BME280;9688;51.906;8.376;2023-02-02T12:43:37;101388.41;;;6.89;100.00
19112;BME280;9688;51.906;8.376;2023-02-02T12:46:37;101388.38;;;6.92;100.00
19112;BME280;9688;51.906;8.376;2023-02-02T12:50:19;101388.38;;;6.92;100.00
19112;BME280;9688;51.906;8.376;2023-02-02T12:53:43;101379.56;;;6.97;100.00
19112;BME280;9688;51.906;8.376;2023-02-02T12:56:46;101380.44;;;6.97;100.00
19112;BME280;9688;51.906;8.376;2023-02-02T13:00:15;101382.16;;;7.01;100.00
19112;BME280;9688;51.906;8.376;2023-02-02T13:03:12;101380.31;;;7.08;100.00
19112;BME280;9688;51.906;8.376;2023-02-02T13:10:37;101387.41;;;6.98;100.00
19112;BME280;9688;51.906;8.376;2023-02-02T13:13:45;101390.09;;;6.97;100.00
19112;BME280;9688;51.906;8.376;2023-02-02T13:20:02;101394.47;;;6.96;100.00
19112;BME280;9688;51.906;8.376;2023-02-02T13:22:55;101398.81;;;7.00;100.00
19112;BME280;9688;51.906;8.376;2023-02-02T13:36:17;101397.16;;;6.91;100.00
19112;BME280;9688;51.906;8.376;2023-02-02T13:39:14;101404.16;;;6.91;100.00
19112;BME280;9688;51.906;8.376;2023-02-02T13:42:04;101394.53;;;6.91;100.00
19112;BME280;9688;51.906;8.376;2023-02-02T13:45:13;101395.38;;;6.92;100.00
19112;BME280;9688;51.906;8.376;2023-02-02T13:48:14;101399.78;;;6.90;100.00
19112;BME280;9688;51.906;8.376;2023-02-02T13:51:32;101398.00;;;6.92;100.00
19112;BME280;9688;51.906;8.376;2023-02-02T14:01:41;101398.91;;;6.91;100.00
19112;BME280;9688;51.906;8.376;2023-02-02T14:04:35;101402.44;;;6.88;100.00
19112;BME280;9688;51.906;8.376;2023-02-02T14:07:36;101398.09;;;6.84;100.00
19112;BME280;9688;51.906;8.376;2023-02-02T14:10:34;101396.34;;;6.83;100.00
19112;BME280;9688;51.906;8.376;2023-02-02T14:13:40;101402.53;;;6.79;100.00
19112;BME280;9688;51.906;8.376;2023-02-02T14:16:48;101407.81;;;6.78;100.00
19112;BME280;9688;51.906;8.376;2023-02-02T14:19:53;101416.59;;;6.77;100.00
19112;BME280;9688;51.906;8.376;2023-02-02T14:27:01;101427.13;;;6.72;100.00
19112;BME280;9688;51.906;8.376;2023-02-02T14:29:59;101420.19;;;6.68;100.00
19112;BME280;9688;51.906;8.376;2023-02-02T14:32:49;101423.66;;;6.67;100.00
19112;BME280;9688;51.906;8.376;2023-02-02T14:36:25;101436.88;;;6.62;100.00
19112;BME280;9688;51.906;8.376;2023-02-02T14:39:18;101423.72;;;6.59;100.00
19112;BME280;9688;51.906;8.376;2023-02-02T14:42:23;101425.53;;;6.56;100.00
19112;BME280;9688;51.906;8.376;2023-02-02T14:45:36;101428.19;;;6.51;100.00
19112;BME280;9688;51.906;8.376;2023-02-02T14:48:24;101418.59;;;6.47;100.00
19112;BME280;9688;51.906;8.376;2023-02-02T14:51:13;101430.88;;;6.45;100.00
19112;BME280;9688;51.906;8.376;2023-02-02T14:54:05;101435.22;;;6.49;100.00
19112;BME280;9688;51.906;8.376;2023-02-02T14:56:58;101429.03;;;6.53;100.00
19112;BME280;9688;51.906;8.376;2023-02-02T14:59:47;101449.19;;;6.53;100.00
19112;BME280;9688;51.906;8.376;2023-02-02T15:02:36;101436.94;;;6.50;100.00
19112;BME280;9688;51.906;8.376;2023-02-02T15:05:43;101438.75;;;6.46;100.00
19112;BME280;9688;51.906;8.376;2023-02-02T15:08:36;101445.72;;;6.47;100.00
19112;BME280;9688;51.906;8.376;2023-02-02T15:11:23;101440.50;;;6.44;100.00
19112;BME280;9688;51.906;8.376;2023-02-02T15:14:17;101444.94;;;6.38;100.00
19112;BME280;9688;51.906;8.376;2023-02-02T15:17:15;101455.47;;;6.32;100.00
19112;BME280;9688;51.906;8.376;2023-02-02T15:20:12;101457.28;;;6.27;100.00
19112;BME280;9688;51.906;8.376;2023-02-02T15:23:20;101457.25;;;6.28;100.00
19112;BME280;9688;51.906;8.376;2023-02-02T15:26:16;101463.34;;;6.35;100.00
19112;BME280;9688;51.906;8.376;2023-02-02T15:29:06;101466.81;;;6.37;100.00
19112;BME280;9688;51.906;8.376;2023-02-02T15:31:58;101458.91;;;6.41;100.00
19112;BME280;9688;51.906;8.376;2023-02-02T15:34:49;101465.91;;;6.42;100.00
19112;BME280;9688;51.906;8.376;2023-02-02T15:37:48;101464.16;;;6.40;100.00
19112;BME280;9688;51.906;8.376;2023-02-02T15:40:54;101470.31;;;6.37;100.00
19112;BME280;9688;51.906;8.376;2023-02-02T15:43:46;101468.59;;;6.35;100.00
19112;BME280;9688;51.906;8.376;2023-02-02T15:46:33;101464.22;;;6.35;100.00
19112;BME280;9688;51.906;8.376;2023-02-02T15:49:27;101472.09;;;6.35;100.00
19112;BME280;9688;51.906;8.376;2023-02-02T15:52:21;101473.78;;;6.44;100.00
19112;BME280;9688;51.906;8.376;2023-02-02T15:55:19;101471.13;;;6.45;100.00
19112;BME280;9688;51.906;8.376;2023-02-02T15:58:24;101472.03;;;6.44;100.00
19112;BME280;9688;51.906;8.376;2023-02-02T16:01:15;101459.75;;;6.45;100.00
19112;BME280;9688;51.906;8.376;2023-02-02T16:04:11;101486.03;;;6.46;100.00
19112;BME280;9688;51.906;8.376;2023-02-02T16:07:00;101464.97;;;6.50;100.00
19112;BME280;9688;51.906;8.376;2023-02-02T16:09:48;101492.16;;;6.44;100.00
19112;BME280;9688;51.906;8.376;2023-02-02T16:12:34;101487.81;;;6.40;100.00
19112;BME280;9688;51.906;8.376;2023-02-02T16:15:22;101477.28;;;6.40;100.00
19112;BME280;9688;51.906;8.376;2023-02-02T16:18:12;101470.28;;;6.42;100.00
19112;BME280;9688;51.906;8.376;2023-02-02T16:21:03;101473.75;;;6.45;100.00
19112;BME280;9688;51.906;8.376;2023-02-02T16:23:53;101485.13;;;6.47;100.00
19112;BME280;9688;51.906;8.376;2023-02-02T16:26:43;101477.31;;;6.43;100.00
19112;BME280;9688;51.906;8.376;2023-02-02T16:29:37;101472.91;;;6.42;100.00
19112;BME280;9688;51.906;8.376;2023-02-02T16:32:34;101475.56;;;6.39;100.00
19112;BME280;9688;51.906;8.376;2023-02-02T16:35:30;101472.91;;;6.42;100.00
19112;BME280;9688;51.906;8.376;2023-02-02T16:38:23;101471.13;;;6.45;100.00
19112;BME280;9688;51.906;8.376;2023-02-02T16:41:12;101488.66;;;6.46;100.00
19112;BME280;9688;51.906;8.376;2023-02-02T16:44:35;101484.31;;;6.39;100.00
19112;BME280;9688;51.906;8.376;2023-02-02T16:47:34;101492.25;;;6.35;100.00
19112;BME280;9688;51.906;8.376;2023-02-02T16:50:26;101487.91;;;6.29;100.00
19112;BME280;9688;51.906;8.376;2023-02-02T16:53:21;101484.38;;;6.29;100.00
19112;BME280;9688;51.906;8.376;2023-02-02T16:56:08;101490.47;;;6.34;100.00
19112;BME280;9688;51.906;8.376;2023-02-02T16:58:57;101486.97;;;6.36;100.00
19112;BME280;9688;51.906;8.376;2023-02-02T17:01:48;101497.50;;;6.35;100.00
19112;BME280;9688;51.906;8.376;2023-02-02T17:04:37;101500.06;;;6.39;100.00
19112;BME280;9688;51.906;8.376;2023-02-02T17:07:23;101499.19;;;6.43;100.00
19112;BME280;9688;51.906;8.376;2023-02-02T17:10:21;101494.75;;;6.47;100.00
19112;BME280;9688;51.906;8.376;2023-02-02T17:16:28;101497.31;;;6.56;100.00
19112;BME280;9688;51.906;8.376;2023-02-02T17:19:16;101499.94;;;6.58;100.00
19112;BME280;9688;51.906;8.376;2023-02-02T17:22:03;101499.94;;;6.56;100.00
19112;BME280;9688;51.906;8.376;2023-02-02T17:24:55;101506.94;;;6.59;100.00
19112;BME280;9688;51.906;8.376;2023-02-02T17:27:48;101505.16;;;6.62;100.00
19112;BME280;9688;51.906;8.376;2023-02-02T17:30:38;101502.50;;;6.64;100.00
19112;BME280;9688;51.906;8.376;2023-02-02T17:33:33;101507.75;;;6.64;100.00
19112;BME280;9688;51.906;8.376;2023-02-02T17:36:27;101502.50;;;6.64;100.00
19112;BME280;9688;51.906;8.376;2023-02-02T17:39:17;101503.34;;;6.67;100.00
19112;BME280;9688;51.906;8.376;2023-02-02T17:42:03;101505.09;;;6.72;100.00
19112;BME280;9688;51.906;8.376;2023-02-02T17:44:51;101511.22;;;6.72;100.00
19112;BME280;9688;51.906;8.376;2023-02-02T17:47:39;101501.59;;;6.69;100.00
19112;BME280;9688;51.906;8.376;2023-02-02T17:50:28;101510.34;;;6.72;100.00
19112;BME280;9688;51.906;8.376;2023-02-02T17:53:19;101504.19;;;6.74;100.00
19112;BME280;9688;51.906;8.376;2023-02-02T17:56:42;101504.16;;;6.76;100.00
19112;BME280;9688;51.906;8.376;2023-02-02T17:59:53;101502.41;;;6.79;100.00
19112;BME280;9688;51.906;8.376;2023-02-02T18:02:46;101497.97;;;6.83;100.00
19112;BME280;9688;51.906;8.376;2023-02-02T18:05:34;101497.09;;;6.85;100.00
19112;BME280;9688;51.906;8.376;2023-02-02T18:08:21;101490.94;;;6.88;100.00
19112;BME280;9688;51.906;8.376;2023-02-02T18:11:12;101491.75;;;6.93;100.00
19112;BME280;9688;51.906;8.376;2023-02-02T18:14:05;101478.56;;;6.99;100.00
19112;BME280;9688;51.906;8.376;2023-02-02T18:16:55;101485.50;;;7.03;100.00
19112;BME280;9688;51.906;8.376;2023-02-02T18:19:47;101489.88;;;7.07;100.00
19112;BME280;9688;51.906;8.376;2023-02-02T18:22:39;101481.03;;;7.13;100.00
19112;BME280;9688;51.906;8.376;2023-02-02T18:25:34;101474.00;;;7.17;100.00
19112;BME280;9688;51.906;8.376;2023-02-02T18:28:23;101481.81;;;7.24;100.00
19112;BME280;9688;51.906;8.376;2023-02-02T18:31:14;101471.22;;;7.30;100.00
19112;BME280;9688;51.906;8.376;2023-02-02T18:34:03;101469.38;;;7.38;100.00
19112;BME280;9688;51.906;8.376;2023-02-02T18:36:54;101471.03;;;7.46;100.00
19112;BME280;9688;51.906;8.376;2023-02-02T18:39:46;101470.06;;;7.54;100.00
19112;BME280;9688;51.906;8.376;2023-02-02T18:42:40;101466.41;;;7.66;100.00
19112;BME280;9688;51.906;8.376;2023-02-02T18:45:26;101465.34;;;7.78;100.00
19112;BME280;9688;51.906;8.376;2023-02-02T18:48:12;101473.16;;;7.87;100.00
19112;BME280;9688;51.906;8.376;2023-02-02T18:51:03;101466.94;;;7.93;100.00
19112;BME280;9688;51.906;8.376;2023-02-02T18:53:49;101466.78;;;8.02;100.00
19112;BME280;9688;51.906;8.376;2023-02-02T18:56:35;101465.84;;;8.08;100.00
19112;BME280;9688;51.906;8.376;2023-02-02T18:59:23;101459.59;;;8.13;100.00
19112;BME280;9688;51.906;8.376;2023-02-02T19:02:12;101458.66;;;8.17;100.00
19112;BME280;9688;51.906;8.376;2023-02-02T19:04:58;101467.41;;;8.21;100.00
19112;BME280;9688;51.906;8.376;2023-02-02T19:08:02;101461.28;;;8.20;100.00
19112;BME280;9688;51.906;8.376;2023-02-02T19:10:54;101466.50;;;8.22;100.00
19112;BME280;9688;51.906;8.376;2023-02-02T19:13:41;101465.59;;;8.24;100.00
19112;BME280;9688;51.906;8.376;2023-02-02T19:16:32;101462.94;;;8.26;100.00
19112;BME280;9688;51.906;8.376;2023-02-02T19:19:23;101466.44;;;8.26;100.00
19112;BME280;9688;51.906;8.376;2023-02-02T19:22:17;101460.25;;;8.29;100.00
19112;BME280;9688;51.906;8.376;2023-02-02T19:25:10;101458.47;;;8.30;100.00
19112;BME280;9688;51.906;8.376;2023-02-02T19:27:57;101466.38;;;8.30;100.00
19112;BME280;9688;51.906;8.376;2023-02-02T19:30:43;101468.13;;;8.31;100.00
19112;BME280;9688;51.906;8.376;2023-02-02T19:33:37;101472.50;;;8.32;100.00
19112;BME280;9688;51.906;8.376;2023-02-02T19:36:25;101468.06;;;8.34;100.00